sensor_id;sensor_type;location;lat;lon;timestamp;temperature;humidity
54622;DHT22;40521;53.146;6.556;2023-06-26T00:01:30;22.90;95.90
54622;DHT22;40521;53.146;6.556;2023-06-26T00:03:57;22.90;95.80
54622;DHT22;40521;53.146;6.556;2023-06-26T00:06:22;22.90;95.80
54622;DHT22;40521;53.146;6.556;2023-06-26T00:08:54;22.90;95.90
54622;DHT22;40521;53.146;6.556;2023-06-26T00:11:21;22.90;96.00
54622;DHT22;40521;53.146;6.556;2023-06-26T00:13:46;22.80;96.00
54622;DHT22;40521;53.146;6.556;2023-06-26T00:16:12;22.80;96.10
54622;DHT22;40521;53.146;6.556;2023-06-26T00:18:38;22.80;95.90
54622;DHT22;40521;53.146;6.556;2023-06-26T00:21:03;22.80;96.20
54622;DHT22;40521;53.146;6.556;2023-06-26T00:23:29;22.80;96.30
54622;DHT22;40521;53.146;6.556;2023-06-26T00:25:56;22.80;96.50
54622;DHT22;40521;53.146;6.556;2023-06-26T00:28:22;22.80;96.50
54622;DHT22;40521;53.146;6.556;2023-06-26T00:30:47;22.80;96.20
54622;DHT22;40521;53.146;6.556;2023-06-26T00:33:13;22.80;96.20
54622;DHT22;40521;53.146;6.556;2023-06-26T00:35:38;22.80;96.50
54622;DHT22;40521;53.146;6.556;2023-06-26T00:38:04;22.80;96.40
54622;DHT22;40521;53.146;6.556;2023-06-26T00:40:30;22.80;96.30
54622;DHT22;40521;53.146;6.556;2023-06-26T00:42:55;22.80;96.50
54622;DHT22;40521;53.146;6.556;2023-06-26T00:45:21;22.70;96.80
54622;DHT22;40521;53.146;6.556;2023-06-26T00:47:46;22.70;96.70
54622;DHT22;40521;53.146;6.556;2023-06-26T00:50:12;22.70;96.80
54622;DHT22;40521;53.146;6.556;2023-06-26T00:52:38;22.70;97.10
54622;DHT22;40521;53.146;6.556;2023-06-26T00:55:04;22.60;96.90
54622;DHT22;40521;53.146;6.556;2023-06-26T00:57:30;22.60;97.20
54622;DHT22;40521;53.146;6.556;2023-06-26T00:59:55;22.60;97.30
54622;DHT22;40521;53.146;6.556;2023-06-26T01:02:21;22.60;97.10
54622;DHT22;40521;53.146;6.556;2023-06-26T01:04:48;22.60;97.30
54622;DHT22;40521;53.146;6.556;2023-06-26T01:07:14;22.60;96.90
54622;DHT22;40521;53.146;6.556;2023-06-26T01:09:41;22.50;97.40
54622;DHT22;40521;53.146;6.556;2023-06-26T01:12:07;22.50;97.20
54622;DHT22;40521;53.146;6.556;2023-06-26T01:14:33;22.50;97.40
54622;DHT22;40521;53.146;6.556;2023-06-26T01:17:00;22.50;97.40
54622;DHT22;40521;53.146;6.556;2023-06-26T01:19:27;22.40;97.70
54622;DHT22;40521;53.146;6.556;2023-06-26T01:24:28;22.40;97.90
54622;DHT22;40521;53.146;6.556;2023-06-26T01:26:57;22.40;97.70
54622;DHT22;40521;53.146;6.556;2023-06-26T01:29:24;22.40;98.00
54622;DHT22;40521;53.146;6.556;2023-06-26T01:31:51;22.30;98.20
54622;DHT22;40521;53.146;6.556;2023-06-26T01:34:16;22.30;98.40
54622;DHT22;40521;53.146;6.556;2023-06-26T01:36:43;22.30;98.40
54622;DHT22;40521;53.146;6.556;2023-06-26T01:39:09;22.20;98.80
54622;DHT22;40521;53.146;6.556;2023-06-26T01:41:34;22.20;99.00
54622;DHT22;40521;53.146;6.556;2023-06-26T01:46:36;22.10;99.50
54622;DHT22;40521;53.146;6.556;2023-06-26T01:52:07;22.00;99.60
54622;DHT22;40521;53.146;6.556;2023-06-26T01:54:37;22.00;99.60
54622;DHT22;40521;53.146;6.556;2023-06-26T01:57:04;21.90;99.70
54622;DHT22;40521;53.146;6.556;2023-06-26T01:59:32;21.90;99.70
54622;DHT22;40521;53.146;6.556;2023-06-26T02:02:00;21.90;99.60
54622;DHT22;40521;53.146;6.556;2023-06-26T02:04:25;21.90;99.90
54622;DHT22;40521;53.146;6.556;2023-06-26T02:06:51;21.80;99.90
54622;DHT22;40521;53.146;6.556;2023-06-26T02:09:17;21.80;99.90
54622;DHT22;40521;53.146;6.556;2023-06-26T02:11:43;21.70;99.90
54622;DHT22;40521;53.146;6.556;2023-06-26T02:14:08;21.70;99.90
54622;DHT22;40521;53.146;6.556;2023-06-26T02:16:35;21.70;99.90
54622;DHT22;40521;53.146;6.556;2023-06-26T02:19:01;21.60;99.90
54622;DHT22;40521;53.146;6.556;2023-06-26T02:21:26;21.60;99.90
54622;DHT22;40521;53.146;6.556;2023-06-26T02:23:52;21.50;99.90
54622;DHT22;40521;53.146;6.556;2023-06-26T02:26:17;21.50;99.90
54622;DHT22;40521;53.146;6.556;2023-06-26T02:28:43;21.50;99.90
54622;DHT22;40521;53.146;6.556;2023-06-26T02:31:09;21.40;99.90
54622;DHT22;40521;53.146;6.556;2023-06-26T02:33:34;21.40;99.90
54622;DHT22;40521;53.146;6.556;2023-06-26T02:36:00;21.40;99.90
54622;DHT22;40521;53.146;6.556;2023-06-26T02:38:26;21.30;99.90
54622;DHT22;40521;53.146;6.556;2023-06-26T02:40:51;21.20;99.90
54622;DHT22;40521;53.146;6.556;2023-06-26T02:43:17;21.20;99.90
54622;DHT22;40521;53.146;6.556;2023-06-26T02:45:43;21.20;99.90
54622;DHT22;40521;53.146;6.556;2023-06-26T02:48:08;21.10;99.90
54622;DHT22;40521;53.146;6.556;2023-06-26T02:50:34;21.10;99.90
54622;DHT22;40521;53.146;6.556;2023-06-26T02:52:59;21.10;99.90
54622;DHT22;40521;53.146;6.556;2023-06-26T02:55:25;21.00;99.90
54622;DHT22;40521;53.146;6.556;2023-06-26T02:57:51;21.00;99.90
54622;DHT22;40521;53.146;6.556;2023-06-26T03:00:16;20.60;99.90
54622;DHT22;40521;53.146;6.556;2023-06-26T03:02:42;20.90;99.90
54622;DHT22;40521;53.146;6.556;2023-06-26T03:05:08;20.90;99.90
54622;DHT22;40521;53.146;6.556;2023-06-26T03:07:34;20.90;99.90
54622;DHT22;40521;53.146;6.556;2023-06-26T03:09:59;20.90;99.90
54622;DHT22;40521;53.146;6.556;2023-06-26T03:12:25;20.80;99.90
54622;DHT22;40521;53.146;6.556;2023-06-26T03:14:51;20.80;99.90
54622;DHT22;40521;53.146;6.556;2023-06-26T03:17:17;20.80;99.90
54622;DHT22;40521;53.146;6.556;2023-06-26T03:19:42;20.80;99.90
54622;DHT22;40521;53.146;6.556;2023-06-26T03:22:08;20.80;99.90
54622;DHT22;40521;53.146;6.556;2023-06-26T03:24:34;20.70;99.90
54622;DHT22;40521;53.146;6.556;2023-06-26T03:26:59;20.70;99.90
54622;DHT22;40521;53.146;6.556;2023-06-26T03:29:25;20.70;99.90
54622;DHT22;40521;53.146;6.556;2023-06-26T03:31:50;20.70;99.90
54622;DHT22;40521;53.146;6.556;2023-06-26T03:34:16;20.60;99.90
54622;DHT22;40521;53.146;6.556;2023-06-26T03:36:42;20.60;99.90
54622;DHT22;40521;53.146;6.556;2023-06-26T03:39:07;20.60;99.90
54622;DHT22;40521;53.146;6.556;2023-06-26T03:41:33;20.70;99.90
54622;DHT22;40521;53.146;6.556;2023-06-26T03:43:59;20.70;99.90
54622;DHT22;40521;53.146;6.556;2023-06-26T03:46:26;20.70;99.90
54622;DHT22;40521;53.146;6.556;2023-06-26T03:48:51;20.70;99.90
54622;DHT22;40521;53.146;6.556;2023-06-26T03:51:17;20.80;99.90
54622;DHT22;40521;53.146;6.556;2023-06-26T03:53:43;20.80;99.90
54622;DHT22;40521;53.146;6.556;2023-06-26T03:56:08;20.90;99.90
54622;DHT22;40521;53.146;6.556;2023-06-26T03:58:34;21.00;99.90
54622;DHT22;40521;53.146;6.556;2023-06-26T04:00:59;21.10;99.90
54622;DHT22;40521;53.146;6.556;2023-06-26T04:03:25;21.10;99.90
54622;DHT22;40521;53.146;6.556;2023-06-26T04:05:51;21.10;99.90
54622;DHT22;40521;53.146;6.556;2023-06-26T04:08:17;21.00;99.90
54622;DHT22;40521;53.146;6.556;2023-06-26T04:10:42;21.00;99.90
54622;DHT22;40521;53.146;6.556;2023-06-26T04:13:11;20.90;99.90
54622;DHT22;40521;53.146;6.556;2023-06-26T04:15:36;20.90;99.90
54622;DHT22;40521;53.146;6.556;2023-06-26T04:18:02;20.80;99.90
54622;DHT22;40521;53.146;6.556;2023-06-26T04:20:28;20.70;99.90
54622;DHT22;40521;53.146;6.556;2023-06-26T04:22:53;20.70;99.90
54622;DHT22;40521;53.146;6.556;2023-06-26T04:25:19;20.70;99.90
54622;DHT22;40521;53.146;6.556;2023-06-26T04:27:45;20.70;99.90
54622;DHT22;40521;53.146;6.556;2023-06-26T04:30:10;20.70;99.90
54622;DHT22;40521;53.146;6.556;2023-06-26T04:32:37;20.70;99.90
54622;DHT22;40521;53.146;6.556;2023-06-26T04:35:03;20.80;99.90
54622;DHT22;40521;53.146;6.556;2023-06-26T04:37:28;20.90;99.90
54622;DHT22;40521;53.146;6.556;2023-06-26T04:39:54;20.90;99.90
54622;DHT22;40521;53.146;6.556;2023-06-26T04:42:20;21.00;99.90
54622;DHT22;40521;53.146;6.556;2023-06-26T04:44:47;21.00;99.90
54622;DHT22;40521;53.146;6.556;2023-06-26T04:47:12;21.10;99.90
54622;DHT22;40521;53.146;6.556;2023-06-26T04:49:40;21.20;99.90
54622;DHT22;40521;53.146;6.556;2023-06-26T04:52:11;21.30;99.90
54622;DHT22;40521;53.146;6.556;2023-06-26T04:54:38;21.30;99.90
54622;DHT22;40521;53.146;6.556;2023-06-26T04:57:04;21.20;99.90
54622;DHT22;40521;53.146;6.556;2023-06-26T04:59:30;21.00;99.90
54622;DHT22;40521;53.146;6.556;2023-06-26T05:01:55;21.00;99.90
54622;DHT22;40521;53.146;6.556;2023-06-26T05:04:21;21.00;99.90
54622;DHT22;40521;53.146;6.556;2023-06-26T05:06:48;20.90;99.90
54622;DHT22;40521;53.146;6.556;2023-06-26T05:09:13;20.90;99.90
54622;DHT22;40521;53.146;6.556;2023-06-26T05:11:39;20.70;99.90
54622;DHT22;40521;53.146;6.556;2023-06-26T05:14:05;20.50;99.90
54622;DHT22;40521;53.146;6.556;2023-06-26T05:16:33;20.40;99.90
54622;DHT22;40521;53.146;6.556;2023-06-26T05:18:58;20.40;99.90
54622;DHT22;40521;53.146;6.556;2023-06-26T05:21:24;20.40;99.90
54622;DHT22;40521;53.146;6.556;2023-06-26T05:23:50;20.40;99.90
54622;DHT22;40521;53.146;6.556;2023-06-26T05:26:17;20.40;99.90
54622;DHT22;40521;53.146;6.556;2023-06-26T05:28:43;20.50;99.90
54622;DHT22;40521;53.146;6.556;2023-06-26T05:31:14;20.40;99.90
54622;DHT22;40521;53.146;6.556;2023-06-26T05:33:39;20.50;99.90
54622;DHT22;40521;53.146;6.556;2023-06-26T05:36:06;20.60;99.90
54622;DHT22;40521;53.146;6.556;2023-06-26T05:38:32;20.50;99.90
54622;DHT22;40521;53.146;6.556;2023-06-26T05:40:58;20.40;99.90
54622;DHT22;40521;53.146;6.556;2023-06-26T05:43:24;20.40;99.90
54622;DHT22;40521;53.146;6.556;2023-06-26T05:45:50;20.40;99.90
54622;DHT22;40521;53.146;6.556;2023-06-26T05:48:15;20.30;99.90
54622;DHT22;40521;53.146;6.556;2023-06-26T05:50:41;20.30;99.90
54622;DHT22;40521;53.146;6.556;2023-06-26T05:53:08;20.30;99.90
54622;DHT22;40521;53.146;6.556;2023-06-26T05:55:33;20.20;99.90
54622;DHT22;40521;53.146;6.556;2023-06-26T05:57:59;20.20;99.90
54622;DHT22;40521;53.146;6.556;2023-06-26T06:00:25;20.20;99.90
54622;DHT22;40521;53.146;6.556;2023-06-26T06:02:53;20.10;99.90
54622;DHT22;40521;53.146;6.556;2023-06-26T06:05:22;20.10;99.90
54622;DHT22;40521;53.146;6.556;2023-06-26T06:07:48;20.00;99.90
54622;DHT22;40521;53.146;6.556;2023-06-26T06:10:14;20.00;99.90
54622;DHT22;40521;53.146;6.556;2023-06-26T06:12:39;20.10;99.90
54622;DHT22;40521;53.146;6.556;2023-06-26T06:15:05;20.20;99.90
54622;DHT22;40521;53.146;6.556;2023-06-26T06:17:31;20.30;99.90
54622;DHT22;40521;53.146;6.556;2023-06-26T06:19:57;20.40;99.90
54622;DHT22;40521;53.146;6.556;2023-06-26T06:22:22;20.40;99.90
54622;DHT22;40521;53.146;6.556;2023-06-26T06:24:48;20.40;99.90
54622;DHT22;40521;53.146;6.556;2023-06-26T06:27:14;20.50;99.90
54622;DHT22;40521;53.146;6.556;2023-06-26T06:29:40;20.50;99.90
54622;DHT22;40521;53.146;6.556;2023-06-26T06:32:06;20.50;99.90
54622;DHT22;40521;53.146;6.556;2023-06-26T06:34:31;20.70;99.90
54622;DHT22;40521;53.146;6.556;2023-06-26T06:36:57;20.80;99.90
54622;DHT22;40521;53.146;6.556;2023-06-26T06:39:22;20.80;99.90
54622;DHT22;40521;53.146;6.556;2023-06-26T06:41:48;20.80;99.90
54622;DHT22;40521;53.146;6.556;2023-06-26T06:44:14;20.90;99.90
54622;DHT22;40521;53.146;6.556;2023-06-26T06:46:39;20.90;99.90
54622;DHT22;40521;53.146;6.556;2023-06-26T06:49:08;21.00;99.90
54622;DHT22;40521;53.146;6.556;2023-06-26T06:51:34;21.00;99.90
54622;DHT22;40521;53.146;6.556;2023-06-26T06:53:59;21.10;99.90
54622;DHT22;40521;53.146;6.556;2023-06-26T06:56:25;21.10;99.90
54622;DHT22;40521;53.146;6.556;2023-06-26T06:58:50;21.10;99.90
54622;DHT22;40521;53.146;6.556;2023-06-26T07:01:16;21.10;99.90
54622;DHT22;40521;53.146;6.556;2023-06-26T07:03:42;21.10;99.90
54622;DHT22;40521;53.146;6.556;2023-06-26T07:06:07;21.20;99.90
54622;DHT22;40521;53.146;6.556;2023-06-26T07:08:33;21.20;99.90
54622;DHT22;40521;53.146;6.556;2023-06-26T07:10:59;21.20;99.90
54622;DHT22;40521;53.146;6.556;2023-06-26T07:13:25;21.30;99.90
54622;DHT22;40521;53.146;6.556;2023-06-26T07:15:51;21.30;99.90
54622;DHT22;40521;53.146;6.556;2023-06-26T07:18:16;21.40;99.90
54622;DHT22;40521;53.146;6.556;2023-06-26T07:20:42;21.40;99.90
54622;DHT22;40521;53.146;6.556;2023-06-26T07:23:07;21.50;99.90
54622;DHT22;40521;53.146;6.556;2023-06-26T07:25:33;21.50;99.90
54622;DHT22;40521;53.146;6.556;2023-06-26T07:27:59;21.60;99.90
54622;DHT22;40521;53.146;6.556;2023-06-26T07:30:25;21.70;99.90
54622;DHT22;40521;53.146;6.556;2023-06-26T07:32:51;21.70;99.90
54622;DHT22;40521;53.146;6.556;2023-06-26T07:35:16;21.70;99.90
54622;DHT22;40521;53.146;6.556;2023-06-26T07:37:42;21.60;99.90
54622;DHT22;40521;53.146;6.556;2023-06-26T07:40:08;21.50;99.90
54622;DHT22;40521;53.146;6.556;2023-06-26T07:42:33;21.50;99.90
54622;DHT22;40521;53.146;6.556;2023-06-26T07:44:59;21.50;99.90
54622;DHT22;40521;53.146;6.556;2023-06-26T07:47:25;21.40;99.90
54622;DHT22;40521;53.146;6.556;2023-06-26T07:49:50;21.50;99.90
54622;DHT22;40521;53.146;6.556;2023-06-26T07:52:17;21.50;99.90
54622;DHT22;40521;53.146;6.556;2023-06-26T07:54:43;21.60;99.90
54622;DHT22;40521;53.146;6.556;2023-06-26T07:57:08;21.60;99.90
54622;DHT22;40521;53.146;6.556;2023-06-26T07:59:34;21.60;99.90
54622;DHT22;40521;53.146;6.556;2023-06-26T08:02:00;21.50;99.90
54622;DHT22;40521;53.146;6.556;2023-06-26T08:04:27;21.80;99.90
54622;DHT22;40521;53.146;6.556;2023-06-26T08:06:56;22.00;99.90
54622;DHT22;40521;53.146;6.556;2023-06-26T08:09:23;22.00;99.90
54622;DHT22;40521;53.146;6.556;2023-06-26T08:11:48;22.10;99.90
54622;DHT22;40521;53.146;6.556;2023-06-26T08:14:15;22.10;99.90
54622;DHT22;40521;53.146;6.556;2023-06-26T08:16:40;22.10;99.90
54622;DHT22;40521;53.146;6.556;2023-06-26T08:19:07;22.10;99.90
54622;DHT22;40521;53.146;6.556;2023-06-26T08:21:32;22.10;99.90
54622;DHT22;40521;53.146;6.556;2023-06-26T08:23:58;22.10;99.90
54622;DHT22;40521;53.146;6.556;2023-06-26T08:26:24;22.10;99.90
54622;DHT22;40521;53.146;6.556;2023-06-26T08:28:49;22.10;99.90
54622;DHT22;40521;53.146;6.556;2023-06-26T08:31:15;22.20;99.90
54622;DHT22;40521;53.146;6.556;2023-06-26T08:33:41;22.00;99.90
54622;DHT22;40521;53.146;6.556;2023-06-26T08:36:07;22.00;99.90
54622;DHT22;40521;53.146;6.556;2023-06-26T08:38:32;22.00;99.90
54622;DHT22;40521;53.146;6.556;2023-06-26T08:40:58;22.10;99.90
54622;DHT22;40521;53.146;6.556;2023-06-26T08:43:24;22.20;99.90
54622;DHT22;40521;53.146;6.556;2023-06-26T08:45:49;22.30;99.90
54622;DHT22;40521;53.146;6.556;2023-06-26T08:48:18;22.30;99.90
54622;DHT22;40521;53.146;6.556;2023-06-26T08:50:46;22.30;99.90
54622;DHT22;40521;53.146;6.556;2023-06-26T08:55:41;22.10;99.90
54622;DHT22;40521;53.146;6.556;2023-06-26T08:58:07;22.20;99.90
54622;DHT22;40521;53.146;6.556;2023-06-26T09:00:33;22.40;99.90
54622;DHT22;40521;53.146;6.556;2023-06-26T09:02:59;22.50;99.90
54622;DHT22;40521;53.146;6.556;2023-06-26T09:05:25;22.50;99.90
54622;DHT22;40521;53.146;6.556;2023-06-26T09:07:52;22.60;99.90
54622;DHT22;40521;53.146;6.556;2023-06-26T09:10:23;22.60;99.90
54622;DHT22;40521;53.146;6.556;2023-06-26T09:12:49;22.60;99.90
54622;DHT22;40521;53.146;6.556;2023-06-26T09:15:15;22.80;99.90
54622;DHT22;40521;53.146;6.556;2023-06-26T09:17:42;23.00;99.90
54622;DHT22;40521;53.146;6.556;2023-06-26T09:20:08;22.90;99.90
54622;DHT22;40521;53.146;6.556;2023-06-26T09:22:36;22.90;99.90
54622;DHT22;40521;53.146;6.556;2023-06-26T09:25:02;22.70;99.90
54622;DHT22;40521;53.146;6.556;2023-06-26T09:27:27;22.50;99.90
54622;DHT22;40521;53.146;6.556;2023-06-26T09:29:53;22.20;99.90
54622;DHT22;40521;53.146;6.556;2023-06-26T09:32:19;22.30;99.90
54622;DHT22;40521;53.146;6.556;2023-06-26T09:34:44;22.40;99.90
54622;DHT22;40521;53.146;6.556;2023-06-26T09:37:13;22.60;99.90
54622;DHT22;40521;53.146;6.556;2023-06-26T09:39:41;22.90;99.90
54622;DHT22;40521;53.146;6.556;2023-06-26T09:42:07;23.00;99.90
54622;DHT22;40521;53.146;6.556;2023-06-26T09:44:33;23.10;99.90
54622;DHT22;40521;53.146;6.556;2023-06-26T09:46:59;23.10;99.90
54622;DHT22;40521;53.146;6.556;2023-06-26T09:49:27;22.80;99.90
54622;DHT22;40521;53.146;6.556;2023-06-26T09:51:53;22.90;99.90
54622;DHT22;40521;53.146;6.556;2023-06-26T09:54:18;23.00;99.90
54622;DHT22;40521;53.146;6.556;2023-06-26T09:56:46;23.20;99.90
54622;DHT22;40521;53.146;6.556;2023-06-26T09:59:12;23.20;99.90
54622;DHT22;40521;53.146;6.556;2023-06-26T10:01:41;23.10;99.90
54622;DHT22;40521;53.146;6.556;2023-06-26T10:04:07;22.90;99.90
54622;DHT22;40521;53.146;6.556;2023-06-26T10:06:37;22.80;99.90
54622;DHT22;40521;53.146;6.556;2023-06-26T10:09:03;22.60;99.90
54622;DHT22;40521;53.146;6.556;2023-06-26T10:11:32;22.50;99.70
54622;DHT22;40521;53.146;6.556;2023-06-26T10:13:58;22.70;99.90
54622;DHT22;40521;53.146;6.556;2023-06-26T10:16:25;22.60;99.90
54622;DHT22;40521;53.146;6.556;2023-06-26T10:18:56;22.30;99.90
54622;DHT22;40521;53.146;6.556;2023-06-26T10:21:24;22.50;99.90
54622;DHT22;40521;53.146;6.556;2023-06-26T10:23:50;22.50;98.50
54622;DHT22;40521;53.146;6.556;2023-06-26T10:26:17;22.40;99.00
54622;DHT22;40521;53.146;6.556;2023-06-26T10:28:43;22.10;99.40
54622;DHT22;40521;53.146;6.556;2023-06-26T10:31:10;22.20;99.50
54622;DHT22;40521;53.146;6.556;2023-06-26T10:33:36;22.10;99.90
54622;DHT22;40521;53.146;6.556;2023-06-26T10:36:12;22.40;99.40
54622;DHT22;40521;53.146;6.556;2023-06-26T10:38:48;22.50;99.10
54622;DHT22;40521;53.146;6.556;2023-06-26T10:41:13;22.90;99.00
54622;DHT22;40521;53.146;6.556;2023-06-26T10:43:41;23.10;98.30
54622;DHT22;40521;53.146;6.556;2023-06-26T10:46:09;22.90;97.00
54622;DHT22;40521;53.146;6.556;2023-06-26T10:48:47;22.90;97.70
54622;DHT22;40521;53.146;6.556;2023-06-26T10:51:20;23.10;97.90
54622;DHT22;40521;53.146;6.556;2023-06-26T10:53:49;23.20;98.70
54622;DHT22;40521;53.146;6.556;2023-06-26T10:56:15;22.90;97.40
54622;DHT22;40521;53.146;6.556;2023-06-26T10:58:41;22.80;96.50
54622;DHT22;40521;53.146;6.556;2023-06-26T11:03:36;23.20;97.70
54622;DHT22;40521;53.146;6.556;2023-06-26T11:06:09;23.50;95.50
54622;DHT22;40521;53.146;6.556;2023-06-26T11:08:45;23.70;97.00
54622;DHT22;40521;53.146;6.556;2023-06-26T11:11:12;23.70;95.70
54622;DHT22;40521;53.146;6.556;2023-06-26T11:13:37;23.70;95.50
54622;DHT22;40521;53.146;6.556;2023-06-26T11:16:04;23.40;96.30
54622;DHT22;40521;53.146;6.556;2023-06-26T11:18:31;23.40;94.70
54622;DHT22;40521;53.146;6.556;2023-06-26T11:21:18;23.20;95.00
54622;DHT22;40521;53.146;6.556;2023-06-26T11:23:42;23.30;95.90
54622;DHT22;40521;53.146;6.556;2023-06-26T11:26:15;23.20;94.70
54622;DHT22;40521;53.146;6.556;2023-06-26T11:28:48;23.40;95.20
54622;DHT22;40521;53.146;6.556;2023-06-26T11:34:12;23.30;95.70
54622;DHT22;40521;53.146;6.556;2023-06-26T11:36:38;23.10;94.70
54622;DHT22;40521;53.146;6.556;2023-06-26T11:39:05;23.00;95.40
54622;DHT22;40521;53.146;6.556;2023-06-26T11:41:32;23.10;96.10
54622;DHT22;40521;53.146;6.556;2023-06-26T11:44:01;23.40;94.90
54622;DHT22;40521;53.146;6.556;2023-06-26T11:46:27;23.40;94.40
54622;DHT22;40521;53.146;6.556;2023-06-26T11:48:53;23.50;94.40
54622;DHT22;40521;53.146;6.556;2023-06-26T11:51:19;23.70;92.10
54622;DHT22;40521;53.146;6.556;2023-06-26T11:53:45;23.90;93.70
54622;DHT22;40521;53.146;6.556;2023-06-26T11:56:12;24.10;93.40
54622;DHT22;40521;53.146;6.556;2023-06-26T12:01:23;23.60;91.70
54622;DHT22;40521;53.146;6.556;2023-06-26T12:03:49;23.10;91.40
54622;DHT22;40521;53.146;6.556;2023-06-26T12:06:15;22.80;92.10
54622;DHT22;40521;53.146;6.556;2023-06-26T12:08:41;23.00;93.00
54622;DHT22;40521;53.146;6.556;2023-06-26T12:11:07;23.00;93.40
54622;DHT22;40521;53.146;6.556;2023-06-26T12:13:33;23.10;92.80
54622;DHT22;40521;53.146;6.556;2023-06-26T12:15:59;23.50;93.20
54622;DHT22;40521;53.146;6.556;2023-06-26T12:18:24;23.70;93.60
54622;DHT22;40521;53.146;6.556;2023-06-26T12:20:51;23.80;92.10
54622;DHT22;40521;53.146;6.556;2023-06-26T12:23:17;23.80;92.30
54622;DHT22;40521;53.146;6.556;2023-06-26T12:25:43;23.80;91.30
54622;DHT22;40521;53.146;6.556;2023-06-26T12:28:16;23.50;90.70
54622;DHT22;40521;53.146;6.556;2023-06-26T12:30:45;23.80;91.60
54622;DHT22;40521;53.146;6.556;2023-06-26T12:33:14;24.10;91.90
54622;DHT22;40521;53.146;6.556;2023-06-26T12:35:40;23.70;90.40
54622;DHT22;40521;53.146;6.556;2023-06-26T12:38:07;23.60;89.70
54622;DHT22;40521;53.146;6.556;2023-06-26T12:40:35;23.30;90.10
54622;DHT22;40521;53.146;6.556;2023-06-26T12:43:11;23.40;90.80
54622;DHT22;40521;53.146;6.556;2023-06-26T12:45:37;23.70;90.40
54622;DHT22;40521;53.146;6.556;2023-06-26T12:48:12;23.40;89.50
54622;DHT22;40521;53.146;6.556;2023-06-26T12:50:43;23.40;91.10
54622;DHT22;40521;53.146;6.556;2023-06-26T12:53:09;23.30;90.60
54622;DHT22;40521;53.146;6.556;2023-06-26T12:55:35;23.20;90.70
54622;DHT22;40521;53.146;6.556;2023-06-26T12:58:01;23.10;91.00
54622;DHT22;40521;53.146;6.556;2023-06-26T13:00:27;23.10;91.20
54622;DHT22;40521;53.146;6.556;2023-06-26T13:02:52;23.00;91.40
54622;DHT22;40521;53.146;6.556;2023-06-26T13:05:18;22.70;92.10
54622;DHT22;40521;53.146;6.556;2023-06-26T13:07:43;22.50;91.90
54622;DHT22;40521;53.146;6.556;2023-06-26T13:10:09;22.30;91.60
54622;DHT22;40521;53.146;6.556;2023-06-26T13:12:35;22.20;92.10
54622;DHT22;40521;53.146;6.556;2023-06-26T13:15:00;22.40;91.90
54622;DHT22;40521;53.146;6.556;2023-06-26T13:17:26;22.20;92.00
54622;DHT22;40521;53.146;6.556;2023-06-26T13:19:52;22.30;93.10
54622;DHT22;40521;53.146;6.556;2023-06-26T13:22:17;22.20;92.30
54622;DHT22;40521;53.146;6.556;2023-06-26T13:24:43;22.30;92.30
54622;DHT22;40521;53.146;6.556;2023-06-26T13:27:08;22.30;94.00
54622;DHT22;40521;53.146;6.556;2023-06-26T13:29:34;22.60;94.80
54622;DHT22;40521;53.146;6.556;2023-06-26T13:32:00;22.90;92.70
54622;DHT22;40521;53.146;6.556;2023-06-26T13:34:27;23.00;92.50
54622;DHT22;40521;53.146;6.556;2023-06-26T13:36:53;22.90;92.70
54622;DHT22;40521;53.146;6.556;2023-06-26T13:39:19;22.80;93.70
54622;DHT22;40521;53.146;6.556;2023-06-26T13:41:45;22.80;92.70
54622;DHT22;40521;53.146;6.556;2023-06-26T13:44:11;22.80;93.70
54622;DHT22;40521;53.146;6.556;2023-06-26T13:46:37;22.90;93.50
54622;DHT22;40521;53.146;6.556;2023-06-26T13:49:02;23.00;93.70
54622;DHT22;40521;53.146;6.556;2023-06-26T13:51:28;23.00;93.50
54622;DHT22;40521;53.146;6.556;2023-06-26T13:53:53;23.00;93.60
54622;DHT22;40521;53.146;6.556;2023-06-26T13:56:20;23.00;91.70
54622;DHT22;40521;53.146;6.556;2023-06-26T13:58:48;23.20;92.50
54622;DHT22;40521;53.146;6.556;2023-06-26T14:01:13;23.60;92.10
54622;DHT22;40521;53.146;6.556;2023-06-26T14:03:39;23.70;91.50
54622;DHT22;40521;53.146;6.556;2023-06-26T14:06:04;23.60;90.70
54622;DHT22;40521;53.146;6.556;2023-06-26T14:08:30;23.80;91.00
54622;DHT22;40521;53.146;6.556;2023-06-26T14:10:55;23.90;91.70
54622;DHT22;40521;53.146;6.556;2023-06-26T14:13:21;24.10;91.90
54622;DHT22;40521;53.146;6.556;2023-06-26T14:15:47;24.00;89.30
54622;DHT22;40521;53.146;6.556;2023-06-26T14:18:13;24.10;88.50
54622;DHT22;40521;53.146;6.556;2023-06-26T14:20:39;24.10;89.40
54622;DHT22;40521;53.146;6.556;2023-06-26T14:23:05;24.20;88.50
54622;DHT22;40521;53.146;6.556;2023-06-26T14:25:31;24.20;88.70
54622;DHT22;40521;53.146;6.556;2023-06-26T14:27:57;24.10;89.00
54622;DHT22;40521;53.146;6.556;2023-06-26T14:30:23;23.80;88.00
54622;DHT22;40521;53.146;6.556;2023-06-26T14:32:49;23.50;89.90
54622;DHT22;40521;53.146;6.556;2023-06-26T14:35:15;23.20;90.30
54622;DHT22;40521;53.146;6.556;2023-06-26T14:37:40;23.00;90.80
54622;DHT22;40521;53.146;6.556;2023-06-26T14:40:07;22.90;91.30
54622;DHT22;40521;53.146;6.556;2023-06-26T14:42:33;23.00;91.10
54622;DHT22;40521;53.146;6.556;2023-06-26T14:44:59;22.90;91.00
54622;DHT22;40521;53.146;6.556;2023-06-26T14:47:24;23.00;89.50
54622;DHT22;40521;53.146;6.556;2023-06-26T14:49:50;22.90;88.50
54622;DHT22;40521;53.146;6.556;2023-06-26T14:52:15;22.90;89.20
54622;DHT22;40521;53.146;6.556;2023-06-26T14:54:43;23.00;90.40
54622;DHT22;40521;53.146;6.556;2023-06-26T14:57:09;23.20;90.50
54622;DHT22;40521;53.146;6.556;2023-06-26T14:59:34;23.30;88.20
54622;DHT22;40521;53.146;6.556;2023-06-26T15:02:00;23.20;90.00
54622;DHT22;40521;53.146;6.556;2023-06-26T15:04:26;23.00;90.90
54622;DHT22;40521;53.146;6.556;2023-06-26T15:06:52;23.10;91.20
54622;DHT22;40521;53.146;6.556;2023-06-26T15:09:17;23.20;91.20
54622;DHT22;40521;53.146;6.556;2023-06-26T15:11:43;23.30;90.00
54622;DHT22;40521;53.146;6.556;2023-06-26T15:14:09;23.20;88.60
54622;DHT22;40521;53.146;6.556;2023-06-26T15:16:34;23.10;90.40
54622;DHT22;40521;53.146;6.556;2023-06-26T15:19:00;23.40;89.90
54622;DHT22;40521;53.146;6.556;2023-06-26T15:21:26;23.20;88.30
54622;DHT22;40521;53.146;6.556;2023-06-26T15:23:51;23.10;90.10
54622;DHT22;40521;53.146;6.556;2023-06-26T15:26:17;22.90;90.20
54622;DHT22;40521;53.146;6.556;2023-06-26T15:28:43;22.70;90.50
54622;DHT22;40521;53.146;6.556;2023-06-26T15:31:08;22.80;90.90
54622;DHT22;40521;53.146;6.556;2023-06-26T15:33:34;22.80;91.40
54622;DHT22;40521;53.146;6.556;2023-06-26T15:36:00;22.90;91.40
54622;DHT22;40521;53.146;6.556;2023-06-26T15:38:28;23.00;91.30
54622;DHT22;40521;53.146;6.556;2023-06-26T15:40:54;22.80;91.30
54622;DHT22;40521;53.146;6.556;2023-06-26T15:43:20;22.60;91.90